Time;durP1;ratioP1;P1;durP2;ratioP2;P2;SDS_P1;SDS_P2;PMS_P1;PMS_P2;Temp;Humidity;BMP_temperature;BMP_pressure;BME280_temperature;BME280_humidity;BME280_pressure;Samples;Min_cycle;Max_cycle;Signal;HPM_P1;HPM_P2
2022/10/06 00:01:32;;;;;;;6.93;4.05;;;;;;;;;;5034515;28;20022;-41
2022/10/06 00:03:57;;;;;;;5.90;3.90;;;;;;;;;;5034432;28;20059;-40
2022/10/06 00:06:23;;;;;;;6.55;4.28;;;;;;;;;;5034176;28;20022;-40
2022/10/06 00:08:48;;;;;;;6.70;4.03;;;;;;;;;;5034652;28;20292;-41
2022/10/06 00:11:15;;;;;;;5.70;3.50;;;;;;;;;;5034336;28;20167;-40
2022/10/06 00:13:40;;;;;;;7.68;3.95;;;;;;;;;;5034237;28;20124;-41
2022/10/06 00:16:15;;;;;;;5.78;4.07;;;;;;;;;;5034200;28;20105;-40
2022/10/06 00:18:41;;;;;;;5.45;3.33;;;;;;;;;;5034041;28;20033;-41
2022/10/06 00:21:07;;;;;;;7.10;3.78;;;;;;;;;;5034021;28;20018;-41
2022/10/06 00:23:32;;;;;;;9.30;5.13;;;;;;;;;;5034334;28;20063;-40
2022/10/06 00:25:58;;;;;;;9.88;4.20;;;;;;;;;;5032582;28;20451;-40
2022/10/06 00:28:23;;;;;;;8.65;2.95;;;;;;;;;;5033942;28;20065;-40
2022/10/06 00:30:52;;;;;;;3.85;2.60;;;;;;;;;;5033916;28;20033;-40
2022/10/06 00:33:18;;;;;;;5.63;3.30;;;;;;;;;;5033971;28;20078;-41
2022/10/06 00:35:45;;;;;;;5.35;3.53;;;;;;;;;;5033939;28;20024;-40
2022/10/06 00:38:11;;;;;;;4.28;3.00;;;;;;;;;;5032423;28;20033;-41
2022/10/06 00:40:44;;;;;;;4.15;2.95;;;;;;;;;;5033453;28;20048;-40
2022/10/06 00:43:30;;;;;;;7.32;4.10;;;;;;;;;;5033533;28;20036;-41
2022/10/06 00:45:55;;;;;;;6.00;3.28;;;;;;;;;;5033117;28;20120;-40
2022/10/06 00:48:22;;;;;;;7.40;3.63;;;;;;;;;;5032285;28;20100;-41
2022/10/06 00:50:50;;;;;;;7.55;3.78;;;;;;;;;;5033777;28;20034;-40
2022/10/06 00:53:15;;;;;;;5.53;3.55;;;;;;;;;;5033251;28;20037;-40
2022/10/06 00:55:41;;;;;;;7.13;3.38;;;;;;;;;;5033573;28;20518;-40
2022/10/06 00:58:08;;;;;;;4.20;3.20;;;;;;;;;;5015326;28;20028;-40
2022/10/06 01:00:33;;;;;;;3.30;2.90;;;;;;;;;;5032718;28;20036;-40
2022/10/06 01:03:10;;;;;;;4.50;3.30;;;;;;;;;;5014836;28;20107;-41
2022/10/06 01:05:40;;;;;;;7.13;3.40;;;;;;;;;;5032672;28;20033;-41
2022/10/06 01:08:06;;;;;;;3.72;2.80;;;;;;;;;;5032545;28;20048;-41
2022/10/06 01:10:31;;;;;;;9.25;3.30;;;;;;;;;;5014953;28;20056;-40
2022/10/06 01:12:57;;;;;;;3.88;3.25;;;;;;;;;;5014704;28;20041;-41
2022/10/06 01:15:23;;;;;;;6.15;3.83;;;;;;;;;;5032290;28;20021;-41
2022/10/06 01:17:54;;;;;;;5.00;3.45;;;;;;;;;;5014466;28;20017;-41
2022/10/06 01:20:20;;;;;;;3.72;2.88;;;;;;;;;;5032274;28;20492;-41
2022/10/06 01:22:47;;;;;;;3.58;2.80;;;;;;;;;;5014367;28;20037;-40
2022/10/06 01:25:14;;;;;;;6.03;3.10;;;;;;;;;;5014412;28;20112;-41
2022/10/06 01:27:41;;;;;;;6.32;3.33;;;;;;;;;;5014840;28;20483;-41
2022/10/06 01:30:10;;;;;;;5.32;2.38;;;;;;;;;;5014806;28;20075;-40
2022/10/06 01:32:36;;;;;;;5.28;2.95;;;;;;;;;;5014282;28;20032;-41
2022/10/06 01:35:04;;;;;;;6.03;3.55;;;;;;;;;;5014296;28;20492;-40
2022/10/06 01:37:29;;;;;;;4.25;2.80;;;;;;;;;;5029986;28;20056;-41
2022/10/06 01:39:54;;;;;;;3.45;2.75;;;;;;;;;;5014123;28;20029;-41
2022/10/06 01:42:22;;;;;;;6.82;2.72;;;;;;;;;;5014016;28;20033;-41
2022/10/06 01:44:47;;;;;;;5.30;3.10;;;;;;;;;;5030638;28;20180;-41
2022/10/06 01:47:12;;;;;;;5.53;3.17;;;;;;;;;;5030485;28;20029;-41
2022/10/06 01:49:39;;;;;;;3.80;3.42;;;;;;;;;;5013896;28;20506;-40
2022/10/06 01:52:05;;;;;;;3.65;2.75;;;;;;;;;;5030239;28;20036;-41
2022/10/06 01:54:30;;;;;;;4.38;3.42;;;;;;;;;;5013906;28;20392;-40
2022/10/06 01:56:56;;;;;;;5.07;3.20;;;;;;;;;;5030471;28;20025;-41
2022/10/06 01:59:21;;;;;;;4.97;3.55;;;;;;;;;;5030402;28;20079;-41
2022/10/06 02:01:47;;;;;;;7.68;3.60;;;;;;;;;;5013676;28;20246;-40
2022/10/06 02:04:12;;;;;;;7.97;3.67;;;;;;;;;;5030113;28;20033;-40
2022/10/06 02:06:38;;;;;;;5.97;3.60;;;;;;;;;;5013915;28;20025;-40
2022/10/06 02:09:04;;;;;;;4.25;3.13;;;;;;;;;;5032014;28;20029;-41
2022/10/06 02:11:29;;;;;;;10.60;3.97;;;;;;;;;;5031310;28;20456;-40
2022/10/06 02:13:55;;;;;;;8.82;3.40;;;;;;;;;;5029975;28;20375;-40
2022/10/06 02:16:20;;;;;;;4.70;3.05;;;;;;;;;;5031160;28;20021;-42
2022/10/06 02:18:46;;;;;;;5.95;3.70;;;;;;;;;;5013800;28;20121;-40
2022/10/06 02:21:15;;;;;;;11.27;4.00;;;;;;;;;;5031665;28;20101;-41
2022/10/06 02:23:41;;;;;;;3.78;3.13;;;;;;;;;;5029890;28;20033;-40
2022/10/06 02:26:06;;;;;;;4.60;2.88;;;;;;;;;;5031159;28;20050;-40
2022/10/06 02:28:34;;;;;;;7.80;3.88;;;;;;;;;;5013270;28;20099;-40
2022/10/06 02:31:02;;;;;;;5.75;3.78;;;;;;;;;;5029998;28;20087;-40
2022/10/06 02:33:28;;;;;;;5.35;3.65;;;;;;;;;;5013495;28;20041;-39
2022/10/06 02:35:54;;;;;;;6.25;3.95;;;;;;;;;;5031072;28;20017;-41
2022/10/06 02:38:21;;;;;;;6.35;3.25;;;;;;;;;;5013251;28;20056;-41
2022/10/06 02:40:46;;;;;;;7.43;4.10;;;;;;;;;;5013060;28;20468;-41
2022/10/06 02:43:12;;;;;;;5.25;2.75;;;;;;;;;;5029825;28;20452;-40
2022/10/06 02:45:37;;;;;;;9.13;3.08;;;;;;;;;;5030270;28;20627;-42
2022/10/06 02:48:03;;;;;;;5.75;4.80;;;;;;;;;;5030490;28;20091;-41
2022/10/06 02:50:29;;;;;;;7.65;4.40;;;;;;;;;;5012807;28;20380;-41
2022/10/06 02:52:54;;;;;;;6.25;3.40;;;;;;;;;;5012921;28;20037;-40
2022/10/06 02:55:20;;;;;;;15.82;3.78;;;;;;;;;;5030889;28;20021;-40
2022/10/06 02:57:45;;;;;;;7.40;3.25;;;;;;;;;;5012970;28;20037;-41
2022/10/06 03:00:11;;;;;;;9.73;3.40;;;;;;;;;;5029342;28;20543;-41
2022/10/06 03:02:37;;;;;;;5.25;3.47;;;;;;;;;;5012877;28;20081;-40
2022/10/06 03:05:03;;;;;;;3.67;3.00;;;;;;;;;;5012837;28;20043;-40
2022/10/06 03:07:28;;;;;;;6.72;3.15;;;;;;;;;;5029166;28;20034;-40
2022/10/06 03:09:54;;;;;;;5.75;3.25;;;;;;;;;;5012783;28;20014;-41
2022/10/06 03:12:22;;;;;;;5.55;3.67;;;;;;;;;;5029038;28;20129;-40
2022/10/06 03:14:47;;;;;;;6.93;3.58;;;;;;;;;;5030653;28;20152;-41
2022/10/06 03:17:13;;;;;;;12.65;3.97;;;;;;;;;;5012586;28;20045;-41
2022/10/06 03:19:44;;;;;;;4.35;2.67;;;;;;;;;;5029194;28;20017;-40
2022/10/06 03:22:10;;;;;;;6.53;3.65;;;;;;;;;;5012518;28;20048;-40
2022/10/06 03:24:41;;;;;;;4.18;2.72;;;;;;;;;;5029078;28;20599;-40
2022/10/06 03:27:06;;;;;;;5.18;4.07;;;;;;;;;;5030423;28;20108;-41
2022/10/06 03:29:32;;;;;;;5.55;3.65;;;;;;;;;;5028997;28;20483;-41
2022/10/06 03:31:59;;;;;;;7.55;2.65;;;;;;;;;;5029166;28;20041;-41
2022/10/06 03:34:25;;;;;;;7.20;3.30;;;;;;;;;;4996301;28;20026;-40
2022/10/06 03:36:51;;;;;;;5.28;3.33;;;;;;;;;;5012422;28;20068;-40
2022/10/06 03:39:20;;;;;;;5.97;3.25;;;;;;;;;;5030305;28;20545;-40
2022/10/06 03:41:45;;;;;;;5.75;3.25;;;;;;;;;;5030616;28;20060;-41
2022/10/06 03:44:12;;;;;;;7.53;3.33;;;;;;;;;;5029379;28;20463;-41
2022/10/06 03:46:41;;;;;;;6.25;3.85;;;;;;;;;;5030435;28;20067;-41
2022/10/06 03:49:06;;;;;;;11.57;4.18;;;;;;;;;;5030285;28;20379;-40
2022/10/06 03:51:34;;;;;;;5.00;3.35;;;;;;;;;;5028728;28;20611;-41
2022/10/06 03:54:00;;;;;;;5.97;3.75;;;;;;;;;;5030321;28;20076;-40
2022/10/06 03:56:30;;;;;;;7.05;4.05;;;;;;;;;;5012963;28;20057;-40
2022/10/06 03:58:58;;;;;;;8.68;5.05;;;;;;;;;;5012708;28;20030;-40
2022/10/06 04:01:35;;;;;;;8.02;3.53;;;;;;;;;;5015367;28;20088;-40
2022/10/06 04:04:03;;;;;;;8.68;3.78;;;;;;;;;;5032511;28;20029;-40
2022/10/06 04:06:30;;;;;;;5.80;3.63;;;;;;;;;;5015760;28;20491;-40
2022/10/06 04:08:56;;;;;;;7.25;3.67;;;;;;;;;;5033908;28;20037;-40
2022/10/06 04:11:27;;;;;;;8.77;3.60;;;;;;;;;;5015707;28;20021;-41
2022/10/06 04:13:55;;;;;;;6.85;3.85;;;;;;;;;;5032339;28;20124;-41
2022/10/06 04:16:22;;;;;;;6.57;3.83;;;;;;;;;;5016261;28;20428;-41
2022/10/06 04:18:49;;;;;;;11.43;4.47;;;;;;;;;;5034076;28;20041;-40
2022/10/06 04:21:14;;;;;;;5.35;3.33;;;;;;;;;;5033504;28;20014;-40
2022/10/06 04:23:40;;;;;;;8.27;4.38;;;;;;;;;;5016093;28;20041;-41
2022/10/06 04:26:10;;;;;;;7.18;3.40;;;;;;;;;;5015618;28;20018;-41
2022/10/06 04:28:37;;;;;;;5.70;3.95;;;;;;;;;;5033475;28;20087;-42
2022/10/06 04:31:04;;;;;;;6.50;3.58;;;;;;;;;;5033447;28;20021;-40
2022/10/06 04:33:33;;;;;;;10.32;5.03;;;;;;;;;;5033947;28;20045;-41
2022/10/06 04:36:03;;;;;;;8.95;4.53;;;;;;;;;;4999266;28;20038;-41
2022/10/06 04:38:32;;;;;;;7.63;4.78;;;;;;;;;;5033173;28;20037;-41
2022/10/06 04:41:05;;;;;;;7.22;4.30;;;;;;;;;;5015406;28;20743;-41
2022/10/06 04:43:32;;;;;;;5.60;4.07;;;;;;;;;;5015182;28;20029;-40
2022/10/06 04:45:58;;;;;;;7.80;4.43;;;;;;;;;;5015238;28;20030;-41
2022/10/06 04:48:25;;;;;;;5.70;3.92;;;;;;;;;;5031455;28;20025;-41
2022/10/06 04:51:01;;;;;;;7.28;3.97;;;;;;;;;;5031576;28;20018;-40
2022/10/06 04:53:27;;;;;;;8.88;4.32;;;;;;;;;;5015114;28;20040;-40
2022/10/06 04:56:25;;;;;;;6.68;3.90;;;;;;;;;;5014919;28;20380;-41
2022/10/06 04:58:52;;;;;;;7.65;4.05;;;;;;;;;;4962052;28;20379;-41
2022/10/06 05:01:21;;;;;;;7.25;4.07;;;;;;;;;;5031678;28;20579;-41
2022/10/06 05:03:48;;;;;;;6.30;4.22;;;;;;;;;;5014864;28;20061;-41
2022/10/06 05:06:15;;;;;;;5.15;3.42;;;;;;;;;;5032881;28;20032;-40
2022/10/06 05:08:42;;;;;;;3.55;2.80;;;;;;;;;;5015391;28;20120;-40
2022/10/06 05:11:09;;;;;;;6.07;4.25;;;;;;;;;;5030618;28;20033;-40
2022/10/06 05:13:37;;;;;;;6.63;4.10;;;;;;;;;;5030899;28;20060;-41
2022/10/06 05:16:04;;;;;;;5.93;4.35;;;;;;;;;;5014665;28;20014;-40
2022/10/06 05:18:32;;;;;;;8.65;3.25;;;;;;;;;;5031205;28;20087;-40
2022/10/06 05:20:59;;;;;;;5.97;2.70;;;;;;;;;;5014998;28;20071;-41
2022/10/06 05:23:25;;;;;;;6.05;3.75;;;;;;;;;;5014893;28;20030;-40
2022/10/06 05:25:52;;;;;;;4.68;3.53;;;;;;;;;;5031572;28;20029;-40
2022/10/06 05:28:19;;;;;;;6.22;3.95;;;;;;;;;;5015092;28;20381;-40
2022/10/06 05:31:02;;;;;;;3.85;3.08;;;;;;;;;;5014726;28;20029;-41
2022/10/06 05:33:30;;;;;;;5.43;4.15;;;;;;;;;;5031105;28;20467;-40
2022/10/06 05:36:01;;;;;;;4.00;3.28;;;;;;;;;;5014564;28;20376;-41
2022/10/06 05:38:29;;;;;;;5.70;3.53;;;;;;;;;;5030959;28;20091;-40
2022/10/06 05:41:02;;;;;;;6.65;4.05;;;;;;;;;;5014485;28;20095;-40
2022/10/06 05:43:28;;;;;;;5.80;4.00;;;;;;;;;;5014581;28;20403;-46
2022/10/06 05:45:55;;;;;;;7.13;3.67;;;;;;;;;;5032011;28;20029;-40
2022/10/06 05:48:21;;;;;;;7.05;4.10;;;;;;;;;;5014084;28;20128;-40
2022/10/06 05:50:47;;;;;;;8.85;4.65;;;;;;;;;;5014173;28;20104;-40
2022/10/06 05:53:13;;;;;;;7.40;4.40;;;;;;;;;;5013658;28;20139;-41
2022/10/06 05:55:40;;;;;;;6.97;3.58;;;;;;;;;;5032262;28;20018;-40
2022/10/06 05:58:05;;;;;;;8.02;3.97;;;;;;;;;;5030433;28;20033;-40
2022/10/06 06:00:31;;;;;;;8.07;4.03;;;;;;;;;;5014004;28;20183;-40
2022/10/06 06:02:56;;;;;;;6.05;2.90;;;;;;;;;;5014373;28;20038;-40
2022/10/06 06:05:22;;;;;;;4.90;3.50;;;;;;;;;;5014195;28;20014;-41
2022/10/06 06:07:47;;;;;;;5.85;3.65;;;;;;;;;;5030666;28;20041;-40
2022/10/06 06:10:13;;;;;;;6.07;3.25;;;;;;;;;;5014148;28;20024;-40
2022/10/06 06:12:39;;;;;;;3.97;2.88;;;;;;;;;;5030318;28;20396;-40
2022/10/06 06:18:11;;;;;;;4.72;3.22;;;;;;;;;;5014208;28;20039;-40
2022/10/06 06:20:38;;;;;;;2.20;1.98;;;;;;;;;;5013911;28;20071;-40
2022/10/06 06:23:04;;;;;;;5.97;3.42;;;;;;;;;;5031858;28;20037;-40
2022/10/06 06:25:29;;;;;;;4.13;3.13;;;;;;;;;;5013665;28;20423;-40
2022/10/06 06:27:55;;;;;;;4.30;3.80;;;;;;;;;;5030101;28;20028;-40
2022/10/06 06:30:21;;;;;;;4.45;3.00;;;;;;;;;;5031258;28;20021;-41
2022/10/06 06:32:48;;;;;;;4.13;3.05;;;;;;;;;;5013321;28;20041;-40
2022/10/06 06:35:14;;;;;;;4.72;3.30;;;;;;;;;;5013576;28;20104;-40
2022/10/06 06:37:40;;;;;;;6.15;3.70;;;;;;;;;;5030842;28;20144;-40
2022/10/06 06:40:06;;;;;;;4.72;3.03;;;;;;;;;;5030945;28;20030;-41
2022/10/06 06:42:35;;;;;;;12.57;4.32;;;;;;;;;;5029633;28;20041;-41
2022/10/06 06:45:32;;;;;;;7.18;4.07;;;;;;;;;;5013111;28;20464;-41
2022/10/06 06:48:04;;;;;;;5.82;4.20;;;;;;;;;;5030668;28;20494;-41
2022/10/06 06:50:31;;;;;;;3.85;2.97;;;;;;;;;;5013244;28;20057;-40
2022/10/06 06:52:57;;;;;;;4.28;3.40;;;;;;;;;;5030036;28;20049;-41
2022/10/06 06:55:23;;;;;;;7.55;4.80;;;;;;;;;;5013446;28;20129;-40
2022/10/06 06:57:48;;;;;;;7.50;3.75;;;;;;;;;;5013110;28;20471;-41
2022/10/06 07:00:15;;;;;;;5.93;3.03;;;;;;;;;;5012902;28;20025;-41
2022/10/06 07:02:41;;;;;;;6.80;3.55;;;;;;;;;;5012888;28;20022;-41
2022/10/06 07:05:07;;;;;;;4.70;3.08;;;;;;;;;;5013131;28;20033;-40
2022/10/06 07:07:34;;;;;;;4.97;3.10;;;;;;;;;;5029326;28;20025;-41
2022/10/06 07:10:00;;;;;;;4.30;3.00;;;;;;;;;;5012830;28;20033;-40
2022/10/06 07:12:27;;;;;;;5.05;3.60;;;;;;;;;;5012707;28;20562;-40
2022/10/06 07:26:01;;;;;;;3.58;2.97;;;;;;;;;;5012740;28;20074;-40
2022/10/06 07:28:29;;;;;;;5.43;3.20;;;;;;;;;;5012753;28;20120;-41
2022/10/06 07:30:56;;;;;;;5.65;2.90;;;;;;;;;;5012693;28;20423;-40
2022/10/06 07:33:21;;;;;;;5.18;3.92;;;;;;;;;;5012312;28;20076;-40
2022/10/06 07:35:48;;;;;;;4.20;3.65;;;;;;;;;;5031282;28;20484;-40
2022/10/06 07:38:17;;;;;;;6.40;4.03;;;;;;;;;;5016773;28;20472;-40
2022/10/06 07:40:52;;;;;;;5.70;3.17;;;;;;;;;;5016405;28;20029;-41
2022/10/06 07:43:18;;;;;;;6.32;3.78;;;;;;;;;;5034101;28;20029;-40
2022/10/06 07:45:45;;;;;;;5.38;3.42;;;;;;;;;;5016262;28;20032;-40
2022/10/06 07:48:37;;;;;;;3.92;3.10;;;;;;;;;;5031918;28;20083;-41
2022/10/06 07:51:05;;;;;;;4.20;3.28;;;;;;;;;;5032829;28;20037;-41
2022/10/06 07:53:36;;;;;;;3.50;3.20;;;;;;;;;;5032628;28;20144;-40
2022/10/06 07:56:20;;;;;;;12.45;3.75;;;;;;;;;;5016010;28;20033;-40
2022/10/06 07:58:49;;;;;;;3.58;2.88;;;;;;;;;;5033843;28;20128;-41
2022/10/06 08:01:15;;;;;;;3.17;2.17;;;;;;;;;;5033834;28;20025;-40
2022/10/06 08:03:42;;;;;;;3.45;2.60;;;;;;;;;;5034630;28;20030;-41
2022/10/06 08:06:11;;;;;;;3.58;2.95;;;;;;;;;;5034187;28;20025;-40
2022/10/06 08:08:37;;;;;;;8.82;3.72;;;;;;;;;;5033649;28;20468;-40
2022/10/06 08:11:04;;;;;;;3.03;2.72;;;;;;;;;;5033716;28;20025;-40
2022/10/06 08:13:32;;;;;;;6.20;3.22;;;;;;;;;;5033372;28;20045;-41
2022/10/06 08:16:09;;;;;;;4.07;2.55;;;;;;;;;;5033975;28;20018;-40
2022/10/06 08:18:35;;;;;;;5.97;2.75;;;;;;;;;;5033725;28;20124;-40
2022/10/06 08:21:06;;;;;;;3.42;2.42;;;;;;;;;;5033982;28;20531;-40
2022/10/06 08:23:32;;;;;;;4.15;3.38;;;;;;;;;;5016298;28;20374;-40
2022/10/06 08:25:57;;;;;;;4.28;3.40;;;;;;;;;;5034092;28;20022;-40
2022/10/06 08:28:23;;;;;;;5.85;4.15;;;;;;;;;;5033817;28;20034;-40
2022/10/06 08:30:51;;;;;;;4.45;3.60;;;;;;;;;;5033752;28;20017;-41
2022/10/06 08:33:16;;;;;;;5.20;3.15;;;;;;;;;;5033620;28;20046;-40
2022/10/06 08:35:42;;;;;;;4.65;2.92;;;;;;;;;;5033754;28;20018;-41
2022/10/06 08:38:07;;;;;;;7.03;2.83;;;;;;;;;;5015508;28;20115;-40
2022/10/06 08:40:33;;;;;;;3.85;2.90;;;;;;;;;;5033430;28;20025;-40
2022/10/06 08:42:59;;;;;;;3.33;2.63;;;;;;;;;;5033804;28;20045;-40
2022/10/06 08:45:31;;;;;;;3.33;2.88;;;;;;;;;;5033512;28;20029;-40
2022/10/06 08:48:01;;;;;;;4.03;2.60;;;;;;;;;;5032485;28;20128;-40
2022/10/06 08:50:28;;;;;;;4.38;2.83;;;;;;;;;;5015185;28;20083;-41
2022/10/06 08:52:53;;;;;;;3.28;2.50;;;;;;;;;;5033044;28;20423;-40
2022/10/06 08:55:27;;;;;;;3.58;2.65;;;;;;;;;;5033055;28;20093;-41
2022/10/06 08:58:12;;;;;;;3.33;2.88;;;;;;;;;;5032894;28;20026;-40
2022/10/06 09:00:37;;;;;;;4.70;2.80;;;;;;;;;;5032676;28;20112;-40
2022/10/06 09:03:03;;;;;;;5.32;2.90;;;;;;;;;;5015040;28;20113;-41
2022/10/06 09:05:30;;;;;;;4.57;3.20;;;;;;;;;;5032501;28;20033;-40
2022/10/06 09:08:15;;;;;;;5.00;2.78;;;;;;;;;;5032856;28;20026;-41
2022/10/06 09:10:59;;;;;;;4.07;3.20;;;;;;;;;;5032616;28;20495;-40
2022/10/06 09:13:28;;;;;;;4.30;3.30;;;;;;;;;;5032984;28;20038;-40
2022/10/06 09:15:56;;;;;;;4.60;3.05;;;;;;;;;;5032900;28;20037;-41
2022/10/06 09:18:30;;;;;;;9.10;3.30;;;;;;;;;;5032465;28;20033;-41
2022/10/06 09:20:57;;;;;;;4.07;2.95;;;;;;;;;;5032339;28;20044;-41
2022/10/06 09:26:10;;;;;;;4.10;3.22;;;;;;;;;;5032499;28;20037;-40
2022/10/06 09:28:36;;;;;;;6.95;3.92;;;;;;;;;;5032205;28;20022;-40
2022/10/06 09:31:02;;;;;;;5.28;3.08;;;;;;;;;;5032570;28;20475;-40
2022/10/06 09:33:31;;;;;;;5.55;2.83;;;;;;;;;;5032108;28;20033;-40
2022/10/06 09:36:08;;;;;;;8.73;3.33;;;;;;;;;;5031909;28;20535;-40
2022/10/06 09:38:55;;;;;;;5.68;3.55;;;;;;;;;;5032099;28;20483;-41
2022/10/06 09:41:26;;;;;;;4.22;3.67;;;;;;;;;;5031859;28;20037;-41
2022/10/06 09:44:03;;;;;;;4.60;3.17;;;;;;;;;;5031982;28;20033;-41
2022/10/06 09:46:29;;;;;;;5.30;3.72;;;;;;;;;;5032358;28;20037;-40
2022/10/06 09:49:13;;;;;;;7.18;3.72;;;;;;;;;;5032277;28;20021;-41
2022/10/06 09:51:38;;;;;;;6.82;3.50;;;;;;;;;;5031720;28;20068;-40
2022/10/06 09:54:13;;;;;;;4.57;3.05;;;;;;;;;;5031994;28;20056;-41
2022/10/06 09:56:40;;;;;;;5.88;4.43;;;;;;;;;;5031681;28;20536;-40
2022/10/06 09:59:14;;;;;;;4.72;3.47;;;;;;;;;;5031382;28;20480;-41
2022/10/06 10:01:40;;;;;;;6.43;3.80;;;;;;;;;;5031754;28;20432;-40
2022/10/06 10:04:11;;;;;;;7.43;3.90;;;;;;;;;;5031627;28;20033;-41
2022/10/06 10:06:37;;;;;;;8.93;4.07;;;;;;;;;;5031399;28;20033;-41
2022/10/06 10:09:21;;;;;;;3.78;3.13;;;;;;;;;;5031717;28;20076;-40
2022/10/06 10:14:44;;;;;;;4.13;2.70;;;;;;;;;;5031671;28;20092;-41
2022/10/06 10:17:14;;;;;;;3.72;2.97;;;;;;;;;;5031626;28;20029;-41
2022/10/06 10:19:42;;;;;;;5.13;3.78;;;;;;;;;;5031544;28;20029;-41
2022/10/06 10:22:21;;;;;;;6.03;3.70;;;;;;;;;;5031133;28;20022;-41
2022/10/06 10:25:05;;;;;;;5.70;2.85;;;;;;;;;;5031696;28;20044;-40
2022/10/06 10:27:44;;;;;;;6.32;3.65;;;;;;;;;;5031657;28;20109;-41
2022/10/06 10:30:10;;;;;;;3.65;3.13;;;;;;;;;;5031534;28;20037;-41
2022/10/06 10:32:38;;;;;;;7.70;3.65;;;;;;;;;;5031460;28;20547;-41
2022/10/06 10:35:17;;;;;;;5.20;3.55;;;;;;;;;;5030115;28;20377;-41
2022/10/06 10:37:46;;;;;;;5.72;3.15;;;;;;;;;;5030884;28;20511;-41
2022/10/06 10:40:30;;;;;;;10.52;3.60;;;;;;;;;;5031275;28;20036;-41
2022/10/06 10:43:02;;;;;;;4.15;2.78;;;;;;;;;;5031111;28;20365;-41
2022/10/06 10:45:31;;;;;;;4.22;3.15;;;;;;;;;;5030801;28;20030;-41
2022/10/06 10:48:00;;;;;;;6.90;4.05;;;;;;;;;;5030688;28;20020;-41
2022/10/06 10:50:36;;;;;;;6.07;3.60;;;;;;;;;;5030773;28;20377;-41
2022/10/06 10:53:10;;;;;;;3.90;3.42;;;;;;;;;;5030882;28;20042;-41
2022/10/06 10:55:46;;;;;;;4.65;3.55;;;;;;;;;;5030960;28;20037;-41
2022/10/06 10:58:32;;;;;;;6.80;4.10;;;;;;;;;;5030836;28;20499;-41
2022/10/06 11:01:09;;;;;;;6.10;4.15;;;;;;;;;;5031146;28;20033;-41
2022/10/06 11:03:34;;;;;;;5.85;3.53;;;;;;;;;;5030549;28;20503;-41
2022/10/06 11:05:59;;;;;;;4.50;3.42;;;;;;;;;;5030796;28;20025;-41
2022/10/06 11:08:37;;;;;;;4.57;3.72;;;;;;;;;;5030682;28;20040;-41
2022/10/06 11:11:04;;;;;;;5.05;3.70;;;;;;;;;;5030534;28;20388;-41
2022/10/06 11:13:39;;;;;;;4.00;3.13;;;;;;;;;;5031081;28;20041;-41
2022/10/06 11:16:15;;;;;;;6.18;4.28;;;;;;;;;;5013667;28;20065;-41
2022/10/06 11:18:59;;;;;;;3.92;3.13;;;;;;;;;;5031428;28;20426;-41
2022/10/06 11:21:25;;;;;;;4.22;3.40;;;;;;;;;;5031059;28;20064;-40
2022/10/06 11:23:54;;;;;;;4.60;3.33;;;;;;;;;;5031436;28;20041;-42
2022/10/06 11:26:38;;;;;;;5.45;3.40;;;;;;;;;;5031273;28;20026;-41
2022/10/06 11:29:23;;;;;;;2.58;1.95;;;;;;;;;;5031398;28;20029;-45
2022/10/06 11:31:50;;;;;;;6.75;3.13;;;;;;;;;;5031000;28;20045;-41
2022/10/06 11:34:15;;;;;;;3.50;3.13;;;;;;;;;;5031054;28;20056;-41
2022/10/06 11:36:47;;;;;;;4.18;3.35;;;;;;;;;;5030811;28;20100;-40
2022/10/06 11:39:19;;;;;;;8.93;2.90;;;;;;;;;;5031057;28;20084;-40
2022/10/06 11:41:48;;;;;;;5.95;3.05;;;;;;;;;;5030841;28;20083;-41
2022/10/06 11:44:18;;;;;;;4.35;3.35;;;;;;;;;;5031296;28;20030;-41
2022/10/06 11:46:48;;;;;;;3.80;3.33;;;;;;;;;;5031213;28;20033;-41
2022/10/06 11:49:28;;;;;;;4.38;2.97;;;;;;;;;;5031199;28;20033;-41
2022/10/06 11:52:06;;;;;;;4.65;3.28;;;;;;;;;;5030855;28;20116;-41
2022/10/06 11:54:35;;;;;;;2.70;2.35;;;;;;;;;;5031065;28;20068;-41
2022/10/06 11:57:00;;;;;;;3.40;2.80;;;;;;;;;;5030844;28;20534;-41
2022/10/06 11:59:27;;;;;;;4.63;2.92;;;;;;;;;;5013088;28;20045;-41
2022/10/06 12:01:54;;;;;;;6.47;3.42;;;;;;;;;;5030832;28;20146;-41
2022/10/06 12:04:20;;;;;;;6.70;4.03;;;;;;;;;;5030910;28;20026;-41
2022/10/06 12:06:46;;;;;;;6.38;4.03;;;;;;;;;;5030829;28;20023;-41
2022/10/06 12:09:30;;;;;;;4.65;3.03;;;;;;;;;;5030772;28;20040;-41
2022/10/06 12:11:56;;;;;;;6.68;3.22;;;;;;;;;;5030667;28;20029;-41
2022/10/06 12:14:38;;;;;;;2.97;2.75;;;;;;;;;;5030864;28;20072;-41
2022/10/06 12:17:12;;;;;;;4.72;2.90;;;;;;;;;;5030664;28;20078;-40
2022/10/06 12:19:57;;;;;;;5.82;3.22;;;;;;;;;;5030517;28;20484;-41
2022/10/06 12:22:31;;;;;;;3.58;2.10;;;;;;;;;;5033679;28;20029;-41
2022/10/06 12:25:19;;;;;;;4.22;3.08;;;;;;;;;;5034017;28;20025;-40
2022/10/06 12:28:02;;;;;;;3.75;3.42;;;;;;;;;;5021029;28;20045;-41
2022/10/06 12:30:47;;;;;;;4.13;2.97;;;;;;;;;;5033867;28;20029;-41
2022/10/06 12:33:19;;;;;;;2.30;2.05;;;;;;;;;;5033826;28;20049;-41
2022/10/06 12:35:45;;;;;;;4.85;2.95;;;;;;;;;;5033721;28;20037;-41
2022/10/06 12:38:29;;;;;;;3.35;2.83;;;;;;;;;;5033850;28;20033;-41
2022/10/06 12:40:55;;;;;;;2.83;2.33;;;;;;;;;;5033842;28;20029;-41
2022/10/06 12:43:21;;;;;;;3.80;2.88;;;;;;;;;;5033757;28;20029;-41
2022/10/06 12:46:06;;;;;;;4.20;2.72;;;;;;;;;;5016066;28;20025;-40
2022/10/06 12:48:32;;;;;;;5.38;2.83;;;;;;;;;;5033613;28;20022;-41
2022/10/06 12:51:09;;;;;;;4.32;2.45;;;;;;;;;;5033582;28;20628;-40
2022/10/06 12:53:39;;;;;;;2.30;1.88;;;;;;;;;;5033380;28;20048;-41
2022/10/06 12:56:10;;;;;;;7.43;3.00;;;;;;;;;;5033522;28;20044;-41
2022/10/06 12:58:36;;;;;;;5.80;2.53;;;;;;;;;;5015756;28;20116;-42
2022/10/06 13:01:03;;;;;;;2.28;1.80;;;;;;;;;;5015724;28;20104;-41
2022/10/06 13:03:29;;;;;;;1.85;1.67;;;;;;;;;;5033377;28;20044;-41
2022/10/06 13:06:02;;;;;;;2.33;1.75;;;;;;;;;;5033404;28;20018;-41
2022/10/06 13:08:32;;;;;;;4.13;2.30;;;;;;;;;;5033546;28;20497;-42
2022/10/06 13:11:11;;;;;;;2.42;1.55;;;;;;;;;;5015715;28;20117;-43
2022/10/06 13:13:37;;;;;;;2.67;1.25;;;;;;;;;;5033348;28;20075;-41
2022/10/06 13:16:03;;;;;;;11.07;2.00;;;;;;;;;;5033207;28;20022;-41
2022/10/06 13:18:31;;;;;;;2.00;1.77;;;;;;;;;;5033305;28;20033;-41
2022/10/06 13:20:57;;;;;;;1.38;1.20;;;;;;;;;;5033015;28;20384;-41
2022/10/06 13:23:27;;;;;;;1.30;1.20;;;;;;;;;;5033222;28;20030;-41
2022/10/06 13:25:57;;;;;;;2.97;1.42;;;;;;;;;;5033313;28;20143;-41
2022/10/06 13:28:22;;;;;;;1.58;1.20;;;;;;;;;;5032874;28;20550;-41
2022/10/06 13:30:48;;;;;;;1.55;1.27;;;;;;;;;;5032897;28;20053;-41
2022/10/06 13:33:14;;;;;;;1.40;1.30;;;;;;;;;;5032113;28;20048;-41
2022/10/06 13:35:40;;;;;;;1.40;1.20;;;;;;;;;;5032558;28;20017;-41
2022/10/06 13:38:06;;;;;;;1.85;1.17;;;;;;;;;;5032829;28;20545;-41
2022/10/06 13:40:32;;;;;;;2.50;2.22;;;;;;;;;;5032560;28;20021;-41
2022/10/06 13:43:01;;;;;;;1.92;1.60;;;;;;;;;;5032701;28;20065;-41
2022/10/06 13:45:26;;;;;;;2.38;1.52;;;;;;;;;;5032585;28;20464;-41
2022/10/06 13:48:06;;;;;;;2.55;1.33;;;;;;;;;;5032680;28;20029;-41
2022/10/06 13:50:32;;;;;;;1.70;1.15;;;;;;;;;;5032356;28;20483;-41
2022/10/06 13:52:58;;;;;;;1.73;1.30;;;;;;;;;;5032773;28;20041;-41
2022/10/06 13:55:28;;;;;;;1.77;1.17;;;;;;;;;;5032308;28;20468;-42
2022/10/06 13:57:59;;;;;;;2.58;1.48;;;;;;;;;;5032369;28;20036;-41
2022/10/06 14:00:43;;;;;;;1.33;1.23;;;;;;;;;;5032177;28;20041;-42
2022/10/06 14:03:10;;;;;;;0.88;0.88;;;;;;;;;;5032308;28;20021;-41
2022/10/06 14:05:39;;;;;;;1.67;1.20;;;;;;;;;;5032216;28;20030;-40
2022/10/06 14:08:11;;;;;;;1.95;1.30;;;;;;;;;;5032352;28;20030;-41
2022/10/06 14:10:37;;;;;;;1.92;1.27;;;;;;;;;;5032250;28;20057;-41
2022/10/06 14:13:05;;;;;;;2.25;1.52;;;;;;;;;;5032299;28;20384;-41
2022/10/06 14:15:35;;;;;;;7.82;2.13;;;;;;;;;;5032286;28;20030;-41
2022/10/06 14:18:03;;;;;;;2.13;1.92;;;;;;;;;;5031984;28;20041;-41
2022/10/06 14:20:37;;;;;;;1.45;1.33;;;;;;;;;;5031933;28;20032;-41
2022/10/06 14:23:22;;;;;;;1.40;1.30;;;;;;;;;;5032269;28;20034;-41
2022/10/06 14:25:48;;;;;;;2.67;1.58;;;;;;;;;;5031745;28;20029;-41
2022/10/06 14:28:13;;;;;;;1.35;1.25;;;;;;;;;;5014565;28;20025;-41
2022/10/06 14:30:39;;;;;;;1.25;1.15;;;;;;;;;;5031987;28;20029;-41
2022/10/06 14:33:05;;;;;;;2.70;1.90;;;;;;;;;;5013498;28;20395;-41
2022/10/06 14:35:30;;;;;;;2.85;1.30;;;;;;;;;;5031591;28;20079;-41
2022/10/06 14:37:55;;;;;;;1.40;1.27;;;;;;;;;;5031579;28;20079;-41
2022/10/06 14:40:21;;;;;;;1.52;1.30;;;;;;;;;;5031412;28;20076;-41
2022/10/06 14:42:46;;;;;;;1.67;1.58;;;;;;;;;;5031926;28;20044;-41
2022/10/06 14:45:12;;;;;;;2.72;1.38;;;;;;;;;;5030990;28;20357;-41
2022/10/06 14:47:38;;;;;;;1.88;1.10;;;;;;;;;;5031738;28;20028;-41
2022/10/06 14:50:04;;;;;;;2.03;1.10;;;;;;;;;;5031510;28;20391;-41
2022/10/06 14:52:29;;;;;;;1.83;1.48;;;;;;;;;;5031416;28;20431;-41
2022/10/06 14:54:55;;;;;;;2.15;1.20;;;;;;;;;;5031773;28;20112;-42
2022/10/06 14:57:20;;;;;;;3.20;1.35;;;;;;;;;;5031443;28;20099;-42
2022/10/06 14:59:45;;;;;;;2.10;1.15;;;;;;;;;;5031623;28;20036;-41
2022/10/06 15:02:11;;;;;;;2.03;1.23;;;;;;;;;;5031585;28;20438;-41
2022/10/06 15:04:36;;;;;;;3.35;1.33;;;;;;;;;;5031405;28;20061;-41
2022/10/06 15:09:46;;;;;;;1.20;1.10;;;;;;;;;;5031604;28;20113;-42
2022/10/06 15:12:11;;;;;;;14.70;2.15;;;;;;;;;;5031564;28;20559;-41
2022/10/06 15:14:38;;;;;;;1.48;1.10;;;;;;;;;;5031240;28;20491;-41
2022/10/06 15:17:04;;;;;;;2.05;1.40;;;;;;;;;;5031266;28;20025;-41